sensor_id;sensor_type;location;lat;lon;timestamp;P1;durP1;ratioP1;P2;durP2;ratioP2
52057;SDS011;38063;53.210;6.504;2023-12-20T00:00:13;9.85;;;1.58;;
52057;SDS011;38063;53.210;6.504;2023-12-20T00:02:39;11.68;;;1.92;;
52057;SDS011;38063;53.210;6.504;2023-12-20T00:05:04;14.77;;;1.60;;
52057;SDS011;38063;53.210;6.504;2023-12-20T00:07:31;11.07;;;2.05;;
52057;SDS011;38063;53.210;6.504;2023-12-20T00:09:56;11.45;;;1.73;;
52057;SDS011;38063;53.210;6.504;2023-12-20T00:12:22;34.50;;;6.43;;
52057;SDS011;38063;53.210;6.504;2023-12-20T00:14:48;16.27;;;2.45;;
52057;SDS011;38063;53.210;6.504;2023-12-20T00:17:13;19.55;;;2.33;;
52057;SDS011;38063;53.210;6.504;2023-12-20T00:19:39;13.00;;;1.92;;
52057;SDS011;38063;53.210;6.504;2023-12-20T00:22:05;10.80;;;1.67;;
52057;SDS011;38063;53.210;6.504;2023-12-20T00:24:30;8.15;;;2.00;;
52057;SDS011;38063;53.210;6.504;2023-12-20T00:26:56;14.27;;;2.40;;
52057;SDS011;38063;53.210;6.504;2023-12-20T00:29:22;13.35;;;2.35;;
52057;SDS011;38063;53.210;6.504;2023-12-20T00:31:47;11.57;;;2.08;;
52057;SDS011;38063;53.210;6.504;2023-12-20T00:34:13;17.25;;;3.03;;
52057;SDS011;38063;53.210;6.504;2023-12-20T00:36:38;8.05;;;2.00;;
52057;SDS011;38063;53.210;6.504;2023-12-20T00:39:04;15.65;;;2.15;;
52057;SDS011;38063;53.210;6.504;2023-12-20T00:41:30;10.98;;;1.90;;
52057;SDS011;38063;53.210;6.504;2023-12-20T00:43:55;15.00;;;1.90;;
52057;SDS011;38063;53.210;6.504;2023-12-20T00:46:21;17.67;;;2.33;;
52057;SDS011;38063;53.210;6.504;2023-12-20T00:48:46;13.75;;;1.70;;
52057;SDS011;38063;53.210;6.504;2023-12-20T00:51:12;7.32;;;1.33;;
52057;SDS011;38063;53.210;6.504;2023-12-20T00:53:38;15.63;;;1.83;;
52057;SDS011;38063;53.210;6.504;2023-12-20T00:56:04;12.70;;;2.28;;
52057;SDS011;38063;53.210;6.504;2023-12-20T00:58:29;11.70;;;2.08;;
52057;SDS011;38063;53.210;6.504;2023-12-20T01:00:55;11.23;;;1.80;;
52057;SDS011;38063;53.210;6.504;2023-12-20T01:03:20;28.45;;;2.88;;
52057;SDS011;38063;53.210;6.504;2023-12-20T01:05:46;15.10;;;2.10;;
52057;SDS011;38063;53.210;6.504;2023-12-20T01:08:12;19.00;;;3.25;;
52057;SDS011;38063;53.210;6.504;2023-12-20T01:10:37;13.77;;;2.35;;
52057;SDS011;38063;53.210;6.504;2023-12-20T01:13:03;16.50;;;2.40;;
52057;SDS011;38063;53.210;6.504;2023-12-20T01:15:29;10.63;;;2.25;;
52057;SDS011;38063;53.210;6.504;2023-12-20T01:17:54;15.35;;;2.83;;
52057;SDS011;38063;53.210;6.504;2023-12-20T01:20:21;13.27;;;2.25;;
52057;SDS011;38063;53.210;6.504;2023-12-20T01:22:47;13.85;;;2.17;;
52057;SDS011;38063;53.210;6.504;2023-12-20T01:25:13;15.43;;;2.83;;
52057;SDS011;38063;53.210;6.504;2023-12-20T01:27:38;13.13;;;2.25;;
52057;SDS011;38063;53.210;6.504;2023-12-20T01:30:04;14.75;;;2.95;;
52057;SDS011;38063;53.210;6.504;2023-12-20T01:32:30;15.00;;;2.22;;
52057;SDS011;38063;53.210;6.504;2023-12-20T01:34:56;15.02;;;2.53;;
52057;SDS011;38063;53.210;6.504;2023-12-20T01:37:21;12.13;;;2.42;;
52057;SDS011;38063;53.210;6.504;2023-12-20T01:39:49;19.25;;;2.40;;
52057;SDS011;38063;53.210;6.504;2023-12-20T01:42:14;16.70;;;2.97;;
52057;SDS011;38063;53.210;6.504;2023-12-20T01:44:40;10.73;;;2.40;;
52057;SDS011;38063;53.210;6.504;2023-12-20T01:47:05;14.50;;;2.10;;
52057;SDS011;38063;53.210;6.504;2023-12-20T01:49:31;11.88;;;2.17;;
52057;SDS011;38063;53.210;6.504;2023-12-20T01:51:57;7.97;;;2.10;;
52057;SDS011;38063;53.210;6.504;2023-12-20T01:54:23;15.38;;;1.80;;
52057;SDS011;38063;53.210;6.504;2023-12-20T01:56:49;13.35;;;1.90;;
52057;SDS011;38063;53.210;6.504;2023-12-20T01:59:16;6.90;;;1.70;;
52057;SDS011;38063;53.210;6.504;2023-12-20T02:01:43;13.93;;;2.78;;
52057;SDS011;38063;53.210;6.504;2023-12-20T02:04:09;13.40;;;2.47;;
52057;SDS011;38063;53.210;6.504;2023-12-20T02:06:35;10.25;;;1.95;;
52057;SDS011;38063;53.210;6.504;2023-12-20T02:09:03;13.32;;;2.75;;
52057;SDS011;38063;53.210;6.504;2023-12-20T02:11:29;10.57;;;2.30;;
52057;SDS011;38063;53.210;6.504;2023-12-20T02:13:54;13.80;;;2.10;;
52057;SDS011;38063;53.210;6.504;2023-12-20T02:16:21;15.60;;;2.25;;
52057;SDS011;38063;53.210;6.504;2023-12-20T02:18:47;11.60;;;1.98;;
52057;SDS011;38063;53.210;6.504;2023-12-20T02:21:13;17.38;;;2.58;;
52057;SDS011;38063;53.210;6.504;2023-12-20T02:23:39;16.95;;;2.10;;
52057;SDS011;38063;53.210;6.504;2023-12-20T02:26:05;14.73;;;2.95;;
52057;SDS011;38063;53.210;6.504;2023-12-20T02:28:31;15.18;;;2.78;;
52057;SDS011;38063;53.210;6.504;2023-12-20T02:30:57;22.13;;;2.83;;
52057;SDS011;38063;53.210;6.504;2023-12-20T02:33:23;16.05;;;2.92;;
52057;SDS011;38063;53.210;6.504;2023-12-20T02:35:48;24.13;;;3.53;;
52057;SDS011;38063;53.210;6.504;2023-12-20T02:38:14;18.13;;;2.70;;
52057;SDS011;38063;53.210;6.504;2023-12-20T02:40:39;20.80;;;3.55;;
52057;SDS011;38063;53.210;6.504;2023-12-20T02:43:05;22.08;;;3.00;;
52057;SDS011;38063;53.210;6.504;2023-12-20T02:45:31;21.83;;;3.75;;
52057;SDS011;38063;53.210;6.504;2023-12-20T02:47:56;27.33;;;3.80;;
52057;SDS011;38063;53.210;6.504;2023-12-20T02:50:22;16.52;;;2.95;;
52057;SDS011;38063;53.210;6.504;2023-12-20T02:52:48;23.77;;;3.38;;
52057;SDS011;38063;53.210;6.504;2023-12-20T02:55:13;29.65;;;4.18;;
52057;SDS011;38063;53.210;6.504;2023-12-20T02:57:39;26.90;;;3.42;;
52057;SDS011;38063;53.210;6.504;2023-12-20T03:00:08;18.88;;;2.80;;
52057;SDS011;38063;53.210;6.504;2023-12-20T03:02:34;23.90;;;3.85;;
52057;SDS011;38063;53.210;6.504;2023-12-20T03:05:00;29.27;;;3.58;;
52057;SDS011;38063;53.210;6.504;2023-12-20T03:07:26;28.52;;;4.38;;
52057;SDS011;38063;53.210;6.504;2023-12-20T03:09:52;27.15;;;3.28;;
52057;SDS011;38063;53.210;6.504;2023-12-20T03:12:18;32.47;;;3.63;;
52057;SDS011;38063;53.210;6.504;2023-12-20T03:14:43;28.63;;;4.15;;
52057;SDS011;38063;53.210;6.504;2023-12-20T03:17:09;22.17;;;2.95;;
52057;SDS011;38063;53.210;6.504;2023-12-20T03:19:35;19.23;;;3.25;;
52057;SDS011;38063;53.210;6.504;2023-12-20T03:22:01;23.60;;;3.58;;
52057;SDS011;38063;53.210;6.504;2023-12-20T03:24:26;31.63;;;4.13;;
52057;SDS011;38063;53.210;6.504;2023-12-20T03:26:52;18.98;;;3.13;;
52057;SDS011;38063;53.210;6.504;2023-12-20T03:29:18;20.52;;;2.90;;
52057;SDS011;38063;53.210;6.504;2023-12-20T03:31:44;25.65;;;4.47;;
52057;SDS011;38063;53.210;6.504;2023-12-20T03:34:10;21.05;;;2.60;;
52057;SDS011;38063;53.210;6.504;2023-12-20T03:36:36;24.20;;;3.45;;
52057;SDS011;38063;53.210;6.504;2023-12-20T03:39:02;29.75;;;3.53;;
52057;SDS011;38063;53.210;6.504;2023-12-20T03:41:28;23.17;;;3.38;;
52057;SDS011;38063;53.210;6.504;2023-12-20T03:43:53;24.85;;;3.28;;
52057;SDS011;38063;53.210;6.504;2023-12-20T03:46:19;23.38;;;3.85;;
52057;SDS011;38063;53.210;6.504;2023-12-20T03:48:45;20.50;;;3.97;;
52057;SDS011;38063;53.210;6.504;2023-12-20T03:51:10;21.75;;;4.20;;
52057;SDS011;38063;53.210;6.504;2023-12-20T03:53:36;20.77;;;3.67;;
52057;SDS011;38063;53.210;6.504;2023-12-20T03:56:02;26.77;;;3.80;;
52057;SDS011;38063;53.210;6.504;2023-12-20T03:58:28;25.40;;;3.35;;
52057;SDS011;38063;53.210;6.504;2023-12-20T04:00:54;18.38;;;2.55;;
52057;SDS011;38063;53.210;6.504;2023-12-20T04:03:19;15.07;;;3.60;;
52057;SDS011;38063;53.210;6.504;2023-12-20T04:05:45;24.35;;;3.10;;
52057;SDS011;38063;53.210;6.504;2023-12-20T04:08:11;27.58;;;3.83;;
52057;SDS011;38063;53.210;6.504;2023-12-20T04:10:36;21.92;;;3.97;;
52057;SDS011;38063;53.210;6.504;2023-12-20T04:13:03;27.23;;;4.78;;
52057;SDS011;38063;53.210;6.504;2023-12-20T04:15:29;22.45;;;3.60;;
52057;SDS011;38063;53.210;6.504;2023-12-20T04:17:54;25.38;;;3.20;;
52057;SDS011;38063;53.210;6.504;2023-12-20T04:20:20;23.80;;;3.70;;
52057;SDS011;38063;53.210;6.504;2023-12-20T04:22:46;21.63;;;3.63;;
52057;SDS011;38063;53.210;6.504;2023-12-20T04:25:11;29.10;;;4.82;;
52057;SDS011;38063;53.210;6.504;2023-12-20T04:27:37;20.80;;;3.50;;
52057;SDS011;38063;53.210;6.504;2023-12-20T04:30:03;20.42;;;4.03;;
52057;SDS011;38063;53.210;6.504;2023-12-20T04:32:29;26.27;;;3.17;;
52057;SDS011;38063;53.210;6.504;2023-12-20T04:34:54;23.00;;;4.45;;
52057;SDS011;38063;53.210;6.504;2023-12-20T04:37:20;22.50;;;3.08;;
52057;SDS011;38063;53.210;6.504;2023-12-20T04:39:46;21.83;;;3.83;;
52057;SDS011;38063;53.210;6.504;2023-12-20T04:42:11;24.73;;;3.33;;
52057;SDS011;38063;53.210;6.504;2023-12-20T04:44:37;29.65;;;3.65;;
52057;SDS011;38063;53.210;6.504;2023-12-20T04:47:03;27.17;;;3.75;;
52057;SDS011;38063;53.210;6.504;2023-12-20T04:49:28;27.42;;;4.18;;
52057;SDS011;38063;53.210;6.504;2023-12-20T04:51:54;27.23;;;3.20;;
52057;SDS011;38063;53.210;6.504;2023-12-20T04:54:20;40.20;;;4.10;;
52057;SDS011;38063;53.210;6.504;2023-12-20T04:56:46;17.70;;;3.35;;
52057;SDS011;38063;53.210;6.504;2023-12-20T04:59:12;22.27;;;3.40;;
52057;SDS011;38063;53.210;6.504;2023-12-20T05:01:38;26.13;;;4.03;;
52057;SDS011;38063;53.210;6.504;2023-12-20T05:04:04;26.30;;;3.15;;
52057;SDS011;38063;53.210;6.504;2023-12-20T05:06:29;28.85;;;4.40;;
52057;SDS011;38063;53.210;6.504;2023-12-20T05:08:55;24.50;;;4.10;;
52057;SDS011;38063;53.210;6.504;2023-12-20T05:11:21;25.98;;;4.28;;
52057;SDS011;38063;53.210;6.504;2023-12-20T05:13:46;27.70;;;4.22;;
52057;SDS011;38063;53.210;6.504;2023-12-20T05:16:12;25.35;;;4.72;;
52057;SDS011;38063;53.210;6.504;2023-12-20T05:18:39;24.80;;;3.75;;
52057;SDS011;38063;53.210;6.504;2023-12-20T05:21:05;26.00;;;3.28;;
52057;SDS011;38063;53.210;6.504;2023-12-20T05:23:31;35.50;;;3.92;;
52057;SDS011;38063;53.210;6.504;2023-12-20T05:25:57;23.75;;;3.67;;
52057;SDS011;38063;53.210;6.504;2023-12-20T05:28:24;25.38;;;4.10;;
52057;SDS011;38063;53.210;6.504;2023-12-20T05:30:49;22.13;;;3.33;;
52057;SDS011;38063;53.210;6.504;2023-12-20T05:33:15;34.10;;;4.57;;
52057;SDS011;38063;53.210;6.504;2023-12-20T05:35:41;28.83;;;4.57;;
52057;SDS011;38063;53.210;6.504;2023-12-20T05:38:06;20.95;;;3.10;;
52057;SDS011;38063;53.210;6.504;2023-12-20T05:40:32;20.85;;;3.88;;
52057;SDS011;38063;53.210;6.504;2023-12-20T05:42:57;18.20;;;3.85;;
52057;SDS011;38063;53.210;6.504;2023-12-20T05:45:23;19.48;;;3.47;;
52057;SDS011;38063;53.210;6.504;2023-12-20T05:47:49;29.90;;;4.85;;
52057;SDS011;38063;53.210;6.504;2023-12-20T05:50:14;25.20;;;4.00;;
52057;SDS011;38063;53.210;6.504;2023-12-20T05:52:40;24.58;;;3.60;;
52057;SDS011;38063;53.210;6.504;2023-12-20T05:55:06;28.77;;;3.30;;
52057;SDS011;38063;53.210;6.504;2023-12-20T05:57:32;24.92;;;4.43;;
52057;SDS011;38063;53.210;6.504;2023-12-20T05:59:57;29.63;;;5.07;;
52057;SDS011;38063;53.210;6.504;2023-12-20T06:02:23;28.98;;;4.57;;
52057;SDS011;38063;53.210;6.504;2023-12-20T06:04:48;25.70;;;3.80;;
52057;SDS011;38063;53.210;6.504;2023-12-20T06:07:15;28.08;;;3.88;;
52057;SDS011;38063;53.210;6.504;2023-12-20T06:09:42;35.63;;;4.05;;
52057;SDS011;38063;53.210;6.504;2023-12-20T06:12:08;22.63;;;3.78;;
52057;SDS011;38063;53.210;6.504;2023-12-20T06:14:33;23.80;;;3.72;;
52057;SDS011;38063;53.210;6.504;2023-12-20T06:17:00;19.08;;;3.63;;
52057;SDS011;38063;53.210;6.504;2023-12-20T06:19:26;24.75;;;4.00;;
52057;SDS011;38063;53.210;6.504;2023-12-20T06:21:52;19.67;;;2.83;;
52057;SDS011;38063;53.210;6.504;2023-12-20T06:24:17;29.08;;;3.67;;
52057;SDS011;38063;53.210;6.504;2023-12-20T06:26:43;29.25;;;4.57;;
52057;SDS011;38063;53.210;6.504;2023-12-20T06:29:09;18.52;;;3.53;;
52057;SDS011;38063;53.210;6.504;2023-12-20T06:31:34;21.35;;;3.40;;
52057;SDS011;38063;53.210;6.504;2023-12-20T06:34:00;21.77;;;3.53;;
52057;SDS011;38063;53.210;6.504;2023-12-20T06:36:26;18.17;;;3.83;;
52057;SDS011;38063;53.210;6.504;2023-12-20T06:38:52;21.15;;;3.33;;
52057;SDS011;38063;53.210;6.504;2023-12-20T06:41:18;24.85;;;3.90;;
52057;SDS011;38063;53.210;6.504;2023-12-20T06:43:44;27.70;;;3.90;;
52057;SDS011;38063;53.210;6.504;2023-12-20T06:46:09;26.38;;;4.00;;
52057;SDS011;38063;53.210;6.504;2023-12-20T06:48:35;28.65;;;5.07;;
52057;SDS011;38063;53.210;6.504;2023-12-20T06:51:01;17.63;;;3.92;;
52057;SDS011;38063;53.210;6.504;2023-12-20T06:53:27;13.93;;;3.00;;
52057;SDS011;38063;53.210;6.504;2023-12-20T06:55:53;28.13;;;4.65;;
52057;SDS011;38063;53.210;6.504;2023-12-20T06:58:21;25.13;;;4.75;;
52057;SDS011;38063;53.210;6.504;2023-12-20T07:00:46;20.27;;;3.25;;
52057;SDS011;38063;53.210;6.504;2023-12-20T07:03:12;25.70;;;3.40;;
52057;SDS011;38063;53.210;6.504;2023-12-20T07:05:38;26.02;;;5.03;;
52057;SDS011;38063;53.210;6.504;2023-12-20T07:08:04;24.17;;;3.55;;
52057;SDS011;38063;53.210;6.504;2023-12-20T07:10:30;22.17;;;3.90;;
52057;SDS011;38063;53.210;6.504;2023-12-20T07:12:55;27.27;;;4.03;;
52057;SDS011;38063;53.210;6.504;2023-12-20T07:15:22;29.52;;;4.20;;
52057;SDS011;38063;53.210;6.504;2023-12-20T07:17:48;20.30;;;4.05;;
52057;SDS011;38063;53.210;6.504;2023-12-20T07:20:13;21.52;;;3.95;;
52057;SDS011;38063;53.210;6.504;2023-12-20T07:22:39;20.92;;;3.67;;
52057;SDS011;38063;53.210;6.504;2023-12-20T07:25:05;24.55;;;5.25;;
52057;SDS011;38063;53.210;6.504;2023-12-20T07:27:32;20.48;;;3.78;;
52057;SDS011;38063;53.210;6.504;2023-12-20T07:29:57;21.55;;;4.20;;
52057;SDS011;38063;53.210;6.504;2023-12-20T07:32:23;29.92;;;5.18;;
52057;SDS011;38063;53.210;6.504;2023-12-20T07:34:49;23.92;;;3.75;;
52057;SDS011;38063;53.210;6.504;2023-12-20T07:37:14;27.45;;;4.47;;
52057;SDS011;38063;53.210;6.504;2023-12-20T07:39:40;18.92;;;3.75;;
52057;SDS011;38063;53.210;6.504;2023-12-20T07:42:06;22.35;;;3.95;;
52057;SDS011;38063;53.210;6.504;2023-12-20T07:44:32;22.88;;;4.00;;
52057;SDS011;38063;53.210;6.504;2023-12-20T07:46:58;14.13;;;2.80;;
52057;SDS011;38063;53.210;6.504;2023-12-20T07:49:26;21.25;;;3.30;;
52057;SDS011;38063;53.210;6.504;2023-12-20T07:51:51;23.75;;;4.38;;
52057;SDS011;38063;53.210;6.504;2023-12-20T07:54:17;29.17;;;3.97;;
52057;SDS011;38063;53.210;6.504;2023-12-20T07:56:43;18.55;;;3.30;;
52057;SDS011;38063;53.210;6.504;2023-12-20T07:59:08;18.20;;;3.55;;
52057;SDS011;38063;53.210;6.504;2023-12-20T08:01:34;20.40;;;4.05;;
52057;SDS011;38063;53.210;6.504;2023-12-20T08:04:01;25.38;;;4.22;;
52057;SDS011;38063;53.210;6.504;2023-12-20T08:06:26;19.02;;;3.35;;
52057;SDS011;38063;53.210;6.504;2023-12-20T08:08:52;15.55;;;3.83;;
52057;SDS011;38063;53.210;6.504;2023-12-20T08:11:18;24.83;;;3.70;;
52057;SDS011;38063;53.210;6.504;2023-12-20T08:13:43;21.73;;;3.33;;
52057;SDS011;38063;53.210;6.504;2023-12-20T08:16:09;19.80;;;3.47;;
52057;SDS011;38063;53.210;6.504;2023-12-20T08:18:36;18.38;;;4.00;;
52057;SDS011;38063;53.210;6.504;2023-12-20T08:21:02;23.98;;;5.22;;
52057;SDS011;38063;53.210;6.504;2023-12-20T08:23:27;17.58;;;3.25;;
52057;SDS011;38063;53.210;6.504;2023-12-20T08:25:53;21.48;;;3.88;;
52057;SDS011;38063;53.210;6.504;2023-12-20T08:28:19;21.50;;;3.30;;
52057;SDS011;38063;53.210;6.504;2023-12-20T08:30:44;21.20;;;3.22;;
52057;SDS011;38063;53.210;6.504;2023-12-20T08:33:10;20.65;;;3.53;;
52057;SDS011;38063;53.210;6.504;2023-12-20T08:35:38;19.17;;;3.20;;
52057;SDS011;38063;53.210;6.504;2023-12-20T08:38:05;13.82;;;2.70;;
52057;SDS011;38063;53.210;6.504;2023-12-20T08:40:31;16.27;;;3.22;;
52057;SDS011;38063;53.210;6.504;2023-12-20T08:42:56;13.02;;;2.85;;
52057;SDS011;38063;53.210;6.504;2023-12-20T08:45:22;21.00;;;6.70;;
52057;SDS011;38063;53.210;6.504;2023-12-20T08:47:48;15.50;;;3.85;;
52057;SDS011;38063;53.210;6.504;2023-12-20T08:50:13;11.90;;;3.85;;
52057;SDS011;38063;53.210;6.504;2023-12-20T08:52:40;10.32;;;3.65;;
52057;SDS011;38063;53.210;6.504;2023-12-20T08:55:06;5.70;;;2.10;;
52057;SDS011;38063;53.210;6.504;2023-12-20T08:57:32;7.60;;;1.17;;
52057;SDS011;38063;53.210;6.504;2023-12-20T08:59:58;8.88;;;1.80;;
52057;SDS011;38063;53.210;6.504;2023-12-20T09:02:24;12.77;;;2.08;;
52057;SDS011;38063;53.210;6.504;2023-12-20T09:04:50;21.10;;;4.07;;
52057;SDS011;38063;53.210;6.504;2023-12-20T09:07:25;14.18;;;3.90;;
52057;SDS011;38063;53.210;6.504;2023-12-20T09:09:52;10.80;;;2.92;;
52057;SDS011;38063;53.210;6.504;2023-12-20T09:12:18;11.80;;;1.98;;
52057;SDS011;38063;53.210;6.504;2023-12-20T09:14:44;12.75;;;2.58;;
52057;SDS011;38063;53.210;6.504;2023-12-20T09:17:10;8.38;;;1.90;;
52057;SDS011;38063;53.210;6.504;2023-12-20T09:19:37;10.65;;;1.42;;
52057;SDS011;38063;53.210;6.504;2023-12-20T09:22:03;7.65;;;1.40;;
52057;SDS011;38063;53.210;6.504;2023-12-20T09:24:30;7.75;;;1.38;;
52057;SDS011;38063;53.210;6.504;2023-12-20T09:26:55;7.68;;;1.33;;
52057;SDS011;38063;53.210;6.504;2023-12-20T09:29:21;9.50;;;1.55;;
52057;SDS011;38063;53.210;6.504;2023-12-20T09:31:47;6.05;;;1.10;;
52057;SDS011;38063;53.210;6.504;2023-12-20T09:34:14;6.68;;;1.10;;
52057;SDS011;38063;53.210;6.504;2023-12-20T09:36:40;5.97;;;1.20;;
52057;SDS011;38063;53.210;6.504;2023-12-20T09:39:11;6.38;;;1.15;;
52057;SDS011;38063;53.210;6.504;2023-12-20T09:41:44;4.38;;;0.82;;
52057;SDS011;38063;53.210;6.504;2023-12-20T09:44:15;7.90;;;1.50;;
52057;SDS011;38063;53.210;6.504;2023-12-20T09:46:43;9.88;;;1.00;;
52057;SDS011;38063;53.210;6.504;2023-12-20T09:49:11;4.97;;;1.08;;
52057;SDS011;38063;53.210;6.504;2023-12-20T09:51:37;6.43;;;1.23;;
52057;SDS011;38063;53.210;6.504;2023-12-20T09:54:04;3.15;;;0.80;;
52057;SDS011;38063;53.210;6.504;2023-12-20T09:56:30;6.35;;;0.98;;
52057;SDS011;38063;53.210;6.504;2023-12-20T09:58:56;7.15;;;2.10;;
52057;SDS011;38063;53.210;6.504;2023-12-20T10:01:22;7.72;;;1.55;;
52057;SDS011;38063;53.210;6.504;2023-12-20T10:03:48;12.75;;;1.60;;
52057;SDS011;38063;53.210;6.504;2023-12-20T10:06:16;6.25;;;1.10;;
52057;SDS011;38063;53.210;6.504;2023-12-20T10:08:42;11.40;;;1.52;;
52057;SDS011;38063;53.210;6.504;2023-12-20T10:11:08;5.93;;;1.13;;
52057;SDS011;38063;53.210;6.504;2023-12-20T10:13:34;8.82;;;1.55;;
52057;SDS011;38063;53.210;6.504;2023-12-20T10:16:07;5.10;;;1.25;;
52057;SDS011;38063;53.210;6.504;2023-12-20T10:18:33;9.70;;;1.52;;
52057;SDS011;38063;53.210;6.504;2023-12-20T10:21:00;12.73;;;1.95;;
52057;SDS011;38063;53.210;6.504;2023-12-20T10:23:25;8.57;;;1.48;;
52057;SDS011;38063;53.210;6.504;2023-12-20T10:25:58;8.77;;;1.60;;
52057;SDS011;38063;53.210;6.504;2023-12-20T10:28:24;8.82;;;1.67;;
52057;SDS011;38063;53.210;6.504;2023-12-20T10:30:53;15.65;;;1.73;;
52057;SDS011;38063;53.210;6.504;2023-12-20T10:33:25;11.98;;;2.03;;
52057;SDS011;38063;53.210;6.504;2023-12-20T10:35:52;12.73;;;1.95;;
52057;SDS011;38063;53.210;6.504;2023-12-20T10:38:18;14.02;;;2.05;;
52057;SDS011;38063;53.210;6.504;2023-12-20T10:40:47;10.48;;;1.83;;
52057;SDS011;38063;53.210;6.504;2023-12-20T10:43:14;18.88;;;1.85;;
52057;SDS011;38063;53.210;6.504;2023-12-20T10:45:41;9.77;;;2.85;;
52057;SDS011;38063;53.210;6.504;2023-12-20T10:48:09;12.00;;;1.85;;
52057;SDS011;38063;53.210;6.504;2023-12-20T10:50:39;12.82;;;1.80;;
52057;SDS011;38063;53.210;6.504;2023-12-20T10:53:06;13.07;;;1.90;;
52057;SDS011;38063;53.210;6.504;2023-12-20T10:55:32;19.73;;;2.72;;
52057;SDS011;38063;53.210;6.504;2023-12-20T10:58:05;8.70;;;1.85;;
52057;SDS011;38063;53.210;6.504;2023-12-20T11:00:32;10.35;;;1.77;;
52057;SDS011;38063;53.210;6.504;2023-12-20T11:03:04;12.38;;;2.53;;
52057;SDS011;38063;53.210;6.504;2023-12-20T11:05:44;14.85;;;2.28;;
52057;SDS011;38063;53.210;6.504;2023-12-20T11:11:18;11.30;;;1.80;;
52057;SDS011;38063;53.210;6.504;2023-12-20T11:14:00;11.70;;;2.20;;
52057;SDS011;38063;53.210;6.504;2023-12-20T11:16:35;16.40;;;2.53;;
52057;SDS011;38063;53.210;6.504;2023-12-20T11:19:05;18.67;;;3.15;;
52057;SDS011;38063;53.210;6.504;2023-12-20T11:21:31;9.80;;;2.30;;
52057;SDS011;38063;53.210;6.504;2023-12-20T11:23:57;23.48;;;3.00;;
52057;SDS011;38063;53.210;6.504;2023-12-20T11:26:28;15.77;;;2.38;;
52057;SDS011;38063;53.210;6.504;2023-12-20T11:29:00;22.17;;;2.78;;
52057;SDS011;38063;53.210;6.504;2023-12-20T11:31:55;14.23;;;2.50;;
52057;SDS011;38063;53.210;6.504;2023-12-20T11:34:21;14.88;;;2.28;;
52057;SDS011;38063;53.210;6.504;2023-12-20T11:36:46;19.45;;;2.42;;
52057;SDS011;38063;53.210;6.504;2023-12-20T11:39:12;10.05;;;2.10;;
52057;SDS011;38063;53.210;6.504;2023-12-20T11:41:46;14.75;;;2.53;;
52057;SDS011;38063;53.210;6.504;2023-12-20T11:44:11;24.95;;;2.83;;
52057;SDS011;38063;53.210;6.504;2023-12-20T11:46:37;14.95;;;3.22;;
52057;SDS011;38063;53.210;6.504;2023-12-20T11:49:03;13.45;;;1.92;;
52057;SDS011;38063;53.210;6.504;2023-12-20T11:51:29;15.82;;;2.20;;
52057;SDS011;38063;53.210;6.504;2023-12-20T11:53:55;14.93;;;2.13;;
52057;SDS011;38063;53.210;6.504;2023-12-20T11:56:21;22.48;;;3.00;;
52057;SDS011;38063;53.210;6.504;2023-12-20T11:58:46;13.70;;;2.40;;
52057;SDS011;38063;53.210;6.504;2023-12-20T12:01:13;23.40;;;2.67;;
52057;SDS011;38063;53.210;6.504;2023-12-20T12:03:39;15.88;;;2.25;;
52057;SDS011;38063;53.210;6.504;2023-12-20T12:06:06;21.70;;;2.88;;
52057;SDS011;38063;53.210;6.504;2023-12-20T12:08:32;10.63;;;2.65;;
52057;SDS011;38063;53.210;6.504;2023-12-20T12:10:58;16.33;;;2.45;;
52057;SDS011;38063;53.210;6.504;2023-12-20T12:13:24;15.90;;;2.97;;
52057;SDS011;38063;53.210;6.504;2023-12-20T12:15:52;10.98;;;2.30;;
52057;SDS011;38063;53.210;6.504;2023-12-20T12:18:18;15.93;;;2.47;;
52057;SDS011;38063;53.210;6.504;2023-12-20T12:20:44;12.82;;;2.90;;
52057;SDS011;38063;53.210;6.504;2023-12-20T12:23:10;18.35;;;2.72;;
52057;SDS011;38063;53.210;6.504;2023-12-20T12:25:36;17.85;;;2.40;;
52057;SDS011;38063;53.210;6.504;2023-12-20T12:28:05;20.27;;;3.03;;
52057;SDS011;38063;53.210;6.504;2023-12-20T12:30:31;21.15;;;2.97;;
52057;SDS011;38063;53.210;6.504;2023-12-20T12:32:56;13.90;;;2.47;;
52057;SDS011;38063;53.210;6.504;2023-12-20T12:35:22;16.13;;;1.85;;
52057;SDS011;38063;53.210;6.504;2023-12-20T12:37:48;9.80;;;2.08;;
52057;SDS011;38063;53.210;6.504;2023-12-20T12:40:15;14.43;;;2.67;;
52057;SDS011;38063;53.210;6.504;2023-12-20T12:42:42;10.45;;;2.47;;
52057;SDS011;38063;53.210;6.504;2023-12-20T12:45:09;15.48;;;2.50;;
52057;SDS011;38063;53.210;6.504;2023-12-20T12:47:36;16.05;;;2.58;;
52057;SDS011;38063;53.210;6.504;2023-12-20T12:50:02;15.73;;;2.28;;
52057;SDS011;38063;53.210;6.504;2023-12-20T12:52:29;16.10;;;2.20;;
52057;SDS011;38063;53.210;6.504;2023-12-20T12:54:55;12.02;;;1.95;;
52057;SDS011;38063;53.210;6.504;2023-12-20T12:57:21;9.82;;;2.13;;
52057;SDS011;38063;53.210;6.504;2023-12-20T12:59:47;12.63;;;2.17;;
52057;SDS011;38063;53.210;6.504;2023-12-20T13:02:12;13.70;;;1.80;;
52057;SDS011;38063;53.210;6.504;2023-12-20T13:04:39;12.77;;;1.63;;
52057;SDS011;38063;53.210;6.504;2023-12-20T13:07:06;15.02;;;3.05;;
52057;SDS011;38063;53.210;6.504;2023-12-20T13:09:32;13.73;;;2.35;;
52057;SDS011;38063;53.210;6.504;2023-12-20T13:11:58;24.23;;;3.42;;
52057;SDS011;38063;53.210;6.504;2023-12-20T13:14:24;15.43;;;2.10;;
52057;SDS011;38063;53.210;6.504;2023-12-20T13:16:50;13.15;;;2.13;;
52057;SDS011;38063;53.210;6.504;2023-12-20T13:19:15;19.50;;;2.50;;
52057;SDS011;38063;53.210;6.504;2023-12-20T13:21:41;18.38;;;2.60;;
52057;SDS011;38063;53.210;6.504;2023-12-20T13:24:06;14.57;;;2.05;;
52057;SDS011;38063;53.210;6.504;2023-12-20T13:26:32;12.85;;;2.08;;
52057;SDS011;38063;53.210;6.504;2023-12-20T13:28:58;16.33;;;2.17;;
52057;SDS011;38063;53.210;6.504;2023-12-20T13:31:24;8.55;;;2.00;;
52057;SDS011;38063;53.210;6.504;2023-12-20T13:33:49;16.90;;;2.30;;
52057;SDS011;38063;53.210;6.504;2023-12-20T13:36:17;7.88;;;1.67;;
52057;SDS011;38063;53.210;6.504;2023-12-20T13:38:43;14.68;;;2.42;;
52057;SDS011;38063;53.210;6.504;2023-12-20T13:41:09;15.88;;;2.42;;
52057;SDS011;38063;53.210;6.504;2023-12-20T13:43:34;14.10;;;2.38;;
52057;SDS011;38063;53.210;6.504;2023-12-20T13:46:00;9.60;;;1.85;;
52057;SDS011;38063;53.210;6.504;2023-12-20T13:48:26;10.25;;;1.50;;
52057;SDS011;38063;53.210;6.504;2023-12-20T13:50:52;12.38;;;2.17;;
52057;SDS011;38063;53.210;6.504;2023-12-20T13:53:18;10.40;;;1.65;;
52057;SDS011;38063;53.210;6.504;2023-12-20T13:55:44;6.90;;;1.55;;
52057;SDS011;38063;53.210;6.504;2023-12-20T13:58:10;12.30;;;1.60;;
52057;SDS011;38063;53.210;6.504;2023-12-20T14:00:35;7.65;;;1.48;;
52057;SDS011;38063;53.210;6.504;2023-12-20T14:03:04;9.93;;;1.27;;
52057;SDS011;38063;53.210;6.504;2023-12-20T14:05:30;7.20;;;1.38;;
52057;SDS011;38063;53.210;6.504;2023-12-20T14:07:56;8.38;;;1.13;;
52057;SDS011;38063;53.210;6.504;2023-12-20T14:10:25;9.13;;;2.00;;
52057;SDS011;38063;53.210;6.504;2023-12-20T14:12:52;12.50;;;1.48;;
52057;SDS011;38063;53.210;6.504;2023-12-20T14:15:18;5.50;;;1.33;;
52057;SDS011;38063;53.210;6.504;2023-12-20T14:17:44;10.82;;;1.42;;
52057;SDS011;38063;53.210;6.504;2023-12-20T14:20:10;5.65;;;1.52;;
52057;SDS011;38063;53.210;6.504;2023-12-20T14:22:39;8.30;;;1.75;;
52057;SDS011;38063;53.210;6.504;2023-12-20T14:25:10;7.82;;;1.33;;
52057;SDS011;38063;53.210;6.504;2023-12-20T14:27:37;7.05;;;1.00;;
52057;SDS011;38063;53.210;6.504;2023-12-20T14:30:03;9.18;;;1.60;;
52057;SDS011;38063;53.210;6.504;2023-12-20T14:32:30;3.75;;;1.25;;